sensor_id;sensor_type;location;lat;lon;timestamp;P1;durP1;ratioP1;P2;durP2;ratioP2
20870;SDS011;10595;51.218;3.452;2023-06-22T00:02:00;9.10;;;5.87;;
20870;SDS011;10595;51.218;3.452;2023-06-22T00:04:27;9.87;;;5.93;;
20870;SDS011;10595;51.218;3.452;2023-06-22T00:06:53;7.77;;;5.90;;
20870;SDS011;10595;51.218;3.452;2023-06-22T00:09:19;9.53;;;6.37;;
20870;SDS011;10595;51.218;3.452;2023-06-22T00:11:45;9.50;;;6.37;;
20870;SDS011;10595;51.218;3.452;2023-06-22T00:14:11;11.27;;;6.93;;
20870;SDS011;10595;51.218;3.452;2023-06-22T00:16:37;11.33;;;6.80;;
20870;SDS011;10595;51.218;3.452;2023-06-22T00:19:03;9.10;;;6.10;;
20870;SDS011;10595;51.218;3.452;2023-06-22T00:21:29;9.83;;;6.33;;
20870;SDS011;10595;51.218;3.452;2023-06-22T00:23:55;8.70;;;6.07;;
20870;SDS011;10595;51.218;3.452;2023-06-22T00:26:22;8.93;;;6.03;;
20870;SDS011;10595;51.218;3.452;2023-06-22T00:28:48;9.03;;;6.60;;
20870;SDS011;10595;51.218;3.452;2023-06-22T00:31:14;9.07;;;6.20;;
20870;SDS011;10595;51.218;3.452;2023-06-22T00:33:41;11.00;;;6.43;;
20870;SDS011;10595;51.218;3.452;2023-06-22T00:36:07;9.57;;;5.93;;
20870;SDS011;10595;51.218;3.452;2023-06-22T00:38:33;8.40;;;6.33;;
20870;SDS011;10595;51.218;3.452;2023-06-22T00:40:59;10.60;;;6.30;;
20870;SDS011;10595;51.218;3.452;2023-06-22T00:43:25;11.63;;;6.20;;
20870;SDS011;10595;51.218;3.452;2023-06-22T00:45:51;9.27;;;6.53;;
20870;SDS011;10595;51.218;3.452;2023-06-22T00:48:17;9.10;;;5.97;;
20870;SDS011;10595;51.218;3.452;2023-06-22T00:50:43;8.93;;;6.13;;
20870;SDS011;10595;51.218;3.452;2023-06-22T00:53:10;9.17;;;6.13;;
20870;SDS011;10595;51.218;3.452;2023-06-22T00:55:37;9.37;;;6.20;;
20870;SDS011;10595;51.218;3.452;2023-06-22T00:58:04;9.23;;;6.30;;
20870;SDS011;10595;51.218;3.452;2023-06-22T01:00:32;11.93;;;6.43;;
20870;SDS011;10595;51.218;3.452;2023-06-22T01:02:59;12.50;;;6.03;;
20870;SDS011;10595;51.218;3.452;2023-06-22T01:05:25;9.07;;;6.40;;
20870;SDS011;10595;51.218;3.452;2023-06-22T01:10:23;8.60;;;6.03;;
20870;SDS011;10595;51.218;3.452;2023-06-22T01:12:52;9.43;;;6.30;;
20870;SDS011;10595;51.218;3.452;2023-06-22T01:15:33;9.23;;;6.17;;
20870;SDS011;10595;51.218;3.452;2023-06-22T01:18:03;12.60;;;6.50;;
20870;SDS011;10595;51.218;3.452;2023-06-22T01:20:30;10.07;;;5.60;;
20870;SDS011;10595;51.218;3.452;2023-06-22T01:25:31;8.87;;;6.60;;
20870;SDS011;10595;51.218;3.452;2023-06-22T01:28:17;7.57;;;6.00;;
20870;SDS011;10595;51.218;3.452;2023-06-22T01:30:45;9.80;;;6.33;;
20870;SDS011;10595;51.218;3.452;2023-06-22T01:33:12;9.30;;;5.80;;
20870;SDS011;10595;51.218;3.452;2023-06-22T01:35:38;10.50;;;5.57;;
20870;SDS011;10595;51.218;3.452;2023-06-22T01:38:05;9.20;;;6.10;;
20870;SDS011;10595;51.218;3.452;2023-06-22T01:40:33;8.67;;;5.60;;
20870;SDS011;10595;51.218;3.452;2023-06-22T01:43:02;8.73;;;5.77;;
20870;SDS011;10595;51.218;3.452;2023-06-22T01:45:29;10.43;;;6.90;;
20870;SDS011;10595;51.218;3.452;2023-06-22T01:47:55;11.30;;;7.33;;
20870;SDS011;10595;51.218;3.452;2023-06-22T01:50:22;11.67;;;7.27;;
20870;SDS011;10595;51.218;3.452;2023-06-22T01:52:48;10.97;;;7.07;;
20870;SDS011;10595;51.218;3.452;2023-06-22T01:55:14;12.03;;;6.90;;
20870;SDS011;10595;51.218;3.452;2023-06-22T01:57:40;10.67;;;6.57;;
20870;SDS011;10595;51.218;3.452;2023-06-22T02:00:13;11.33;;;7.00;;
20870;SDS011;10595;51.218;3.452;2023-06-22T02:02:43;7.90;;;5.87;;
20870;SDS011;10595;51.218;3.452;2023-06-22T02:05:12;12.73;;;6.30;;
20870;SDS011;10595;51.218;3.452;2023-06-22T02:07:42;9.47;;;6.83;;
20870;SDS011;10595;51.218;3.452;2023-06-22T02:10:10;9.53;;;6.50;;
20870;SDS011;10595;51.218;3.452;2023-06-22T02:12:38;11.43;;;7.53;;
20870;SDS011;10595;51.218;3.452;2023-06-22T02:15:04;9.47;;;6.47;;
20870;SDS011;10595;51.218;3.452;2023-06-22T02:17:31;10.20;;;6.87;;
20870;SDS011;10595;51.218;3.452;2023-06-22T02:19:58;12.00;;;6.80;;
20870;SDS011;10595;51.218;3.452;2023-06-22T02:22:24;11.60;;;7.03;;
20870;SDS011;10595;51.218;3.452;2023-06-22T02:24:50;13.40;;;7.43;;
20870;SDS011;10595;51.218;3.452;2023-06-22T02:27:16;10.40;;;6.63;;
20870;SDS011;10595;51.218;3.452;2023-06-22T02:29:42;13.07;;;7.10;;
20870;SDS011;10595;51.218;3.452;2023-06-22T02:32:08;9.90;;;6.70;;
20870;SDS011;10595;51.218;3.452;2023-06-22T02:34:35;13.17;;;6.60;;
20870;SDS011;10595;51.218;3.452;2023-06-22T02:37:01;10.20;;;7.33;;
20870;SDS011;10595;51.218;3.452;2023-06-22T02:39:27;11.87;;;6.57;;
20870;SDS011;10595;51.218;3.452;2023-06-22T02:41:54;9.80;;;6.90;;
20870;SDS011;10595;51.218;3.452;2023-06-22T02:44:20;10.90;;;7.13;;
20870;SDS011;10595;51.218;3.452;2023-06-22T02:46:47;11.97;;;6.40;;
20870;SDS011;10595;51.218;3.452;2023-06-22T02:49:13;10.93;;;6.90;;
20870;SDS011;10595;51.218;3.452;2023-06-22T02:51:45;11.30;;;7.03;;
20870;SDS011;10595;51.218;3.452;2023-06-22T02:54:12;10.63;;;6.70;;
20870;SDS011;10595;51.218;3.452;2023-06-22T02:56:38;11.33;;;6.60;;
20870;SDS011;10595;51.218;3.452;2023-06-22T02:59:05;11.83;;;7.50;;
20870;SDS011;10595;51.218;3.452;2023-06-22T03:01:32;13.03;;;6.80;;
20870;SDS011;10595;51.218;3.452;2023-06-22T03:04:03;12.67;;;7.80;;
20870;SDS011;10595;51.218;3.452;2023-06-22T03:06:29;13.50;;;7.40;;
20870;SDS011;10595;51.218;3.452;2023-06-22T03:08:59;11.60;;;7.20;;
20870;SDS011;10595;51.218;3.452;2023-06-22T03:11:26;13.17;;;7.07;;
20870;SDS011;10595;51.218;3.452;2023-06-22T03:13:52;12.70;;;8.90;;
20870;SDS011;10595;51.218;3.452;2023-06-22T03:16:19;10.33;;;6.83;;
20870;SDS011;10595;51.218;3.452;2023-06-22T03:18:45;9.77;;;6.53;;
20870;SDS011;10595;51.218;3.452;2023-06-22T03:21:11;10.70;;;6.40;;
20870;SDS011;10595;51.218;3.452;2023-06-22T03:23:37;11.33;;;5.97;;
20870;SDS011;10595;51.218;3.452;2023-06-22T03:26:03;11.17;;;5.93;;
20870;SDS011;10595;51.218;3.452;2023-06-22T03:28:29;9.03;;;5.80;;
20870;SDS011;10595;51.218;3.452;2023-06-22T03:30:57;9.30;;;6.60;;
20870;SDS011;10595;51.218;3.452;2023-06-22T03:33:23;10.67;;;6.20;;
20870;SDS011;10595;51.218;3.452;2023-06-22T03:35:49;12.23;;;7.23;;
20870;SDS011;10595;51.218;3.452;2023-06-22T03:38:18;9.80;;;7.00;;
20870;SDS011;10595;51.218;3.452;2023-06-22T03:40:44;11.53;;;7.57;;
20870;SDS011;10595;51.218;3.452;2023-06-22T03:43:10;10.90;;;6.77;;
20870;SDS011;10595;51.218;3.452;2023-06-22T03:45:36;11.30;;;7.10;;
20870;SDS011;10595;51.218;3.452;2023-06-22T03:48:02;14.63;;;7.63;;
20870;SDS011;10595;51.218;3.452;2023-06-22T03:50:28;14.30;;;7.57;;
20870;SDS011;10595;51.218;3.452;2023-06-22T03:52:55;11.60;;;8.20;;
20870;SDS011;10595;51.218;3.452;2023-06-22T03:55:21;14.97;;;8.30;;
20870;SDS011;10595;51.218;3.452;2023-06-22T03:57:47;14.40;;;8.47;;
20870;SDS011;10595;51.218;3.452;2023-06-22T04:00:13;13.30;;;8.90;;
20870;SDS011;10595;51.218;3.452;2023-06-22T04:02:40;12.87;;;8.23;;
20870;SDS011;10595;51.218;3.452;2023-06-22T04:05:08;15.67;;;8.13;;
20870;SDS011;10595;51.218;3.452;2023-06-22T04:07:34;13.93;;;8.93;;
20870;SDS011;10595;51.218;3.452;2023-06-22T04:10:02;11.97;;;7.93;;
20870;SDS011;10595;51.218;3.452;2023-06-22T04:12:28;11.00;;;7.70;;
20870;SDS011;10595;51.218;3.452;2023-06-22T04:14:54;14.90;;;8.50;;
20870;SDS011;10595;51.218;3.452;2023-06-22T04:17:20;15.73;;;8.47;;
20870;SDS011;10595;51.218;3.452;2023-06-22T04:19:46;13.10;;;8.07;;
20870;SDS011;10595;51.218;3.452;2023-06-22T04:22:12;12.27;;;7.63;;
20870;SDS011;10595;51.218;3.452;2023-06-22T04:24:38;15.80;;;7.93;;
20870;SDS011;10595;51.218;3.452;2023-06-22T04:27:05;12.97;;;8.53;;
20870;SDS011;10595;51.218;3.452;2023-06-22T04:29:31;14.40;;;8.20;;
20870;SDS011;10595;51.218;3.452;2023-06-22T04:31:57;11.57;;;8.13;;
20870;SDS011;10595;51.218;3.452;2023-06-22T04:34:24;13.50;;;8.40;;
20870;SDS011;10595;51.218;3.452;2023-06-22T04:36:53;13.40;;;8.20;;
20870;SDS011;10595;51.218;3.452;2023-06-22T04:39:19;15.40;;;8.50;;
20870;SDS011;10595;51.218;3.452;2023-06-22T04:41:46;17.10;;;9.20;;
20870;SDS011;10595;51.218;3.452;2023-06-22T04:44:12;16.73;;;8.33;;
20870;SDS011;10595;51.218;3.452;2023-06-22T04:46:39;13.10;;;9.20;;
20870;SDS011;10595;51.218;3.452;2023-06-22T04:49:08;16.30;;;10.93;;
20870;SDS011;10595;51.218;3.452;2023-06-22T04:51:40;16.53;;;10.60;;
20870;SDS011;10595;51.218;3.452;2023-06-22T04:54:07;16.23;;;9.77;;
20870;SDS011;10595;51.218;3.452;2023-06-22T04:56:33;16.20;;;10.00;;
20870;SDS011;10595;51.218;3.452;2023-06-22T04:58:59;19.37;;;11.13;;
20870;SDS011;10595;51.218;3.452;2023-06-22T05:01:25;17.40;;;11.10;;
20870;SDS011;10595;51.218;3.452;2023-06-22T05:03:52;15.80;;;10.93;;
20870;SDS011;10595;51.218;3.452;2023-06-22T05:06:23;16.43;;;11.10;;
20870;SDS011;10595;51.218;3.452;2023-06-22T05:08:51;17.50;;;11.23;;
20870;SDS011;10595;51.218;3.452;2023-06-22T05:11:17;18.00;;;11.30;;
20870;SDS011;10595;51.218;3.452;2023-06-22T05:13:43;16.83;;;10.60;;
20870;SDS011;10595;51.218;3.452;2023-06-22T05:16:09;20.00;;;12.80;;
20870;SDS011;10595;51.218;3.452;2023-06-22T05:18:35;18.83;;;11.23;;
20870;SDS011;10595;51.218;3.452;2023-06-22T05:21:01;20.50;;;12.37;;
20870;SDS011;10595;51.218;3.452;2023-06-22T05:23:28;21.83;;;12.43;;
20870;SDS011;10595;51.218;3.452;2023-06-22T05:25:54;17.67;;;11.77;;
20870;SDS011;10595;51.218;3.452;2023-06-22T05:28:22;19.80;;;11.77;;
20870;SDS011;10595;51.218;3.452;2023-06-22T05:30:49;21.27;;;12.87;;
20870;SDS011;10595;51.218;3.452;2023-06-22T05:33:15;19.43;;;12.70;;
20870;SDS011;10595;51.218;3.452;2023-06-22T05:35:41;20.13;;;13.13;;
20870;SDS011;10595;51.218;3.452;2023-06-22T05:38:07;21.70;;;13.43;;
20870;SDS011;10595;51.218;3.452;2023-06-22T05:40:33;25.10;;;12.47;;
20870;SDS011;10595;51.218;3.452;2023-06-22T05:42:59;25.60;;;14.60;;
20870;SDS011;10595;51.218;3.452;2023-06-22T05:45:26;25.73;;;15.00;;
20870;SDS011;10595;51.218;3.452;2023-06-22T05:47:52;23.13;;;14.37;;
20870;SDS011;10595;51.218;3.452;2023-06-22T05:50:18;22.73;;;14.50;;
20870;SDS011;10595;51.218;3.452;2023-06-22T05:52:44;25.00;;;16.20;;
20870;SDS011;10595;51.218;3.452;2023-06-22T05:55:10;29.80;;;15.63;;
20870;SDS011;10595;51.218;3.452;2023-06-22T05:57:36;25.63;;;16.10;;
20870;SDS011;10595;51.218;3.452;2023-06-22T06:00:03;29.03;;;17.27;;
20870;SDS011;10595;51.218;3.452;2023-06-22T06:02:33;26.63;;;15.97;;
20870;SDS011;10595;51.218;3.452;2023-06-22T06:04:59;29.87;;;17.13;;
20870;SDS011;10595;51.218;3.452;2023-06-22T06:07:27;31.70;;;18.07;;
20870;SDS011;10595;51.218;3.452;2023-06-22T06:09:53;27.57;;;16.57;;
20870;SDS011;10595;51.218;3.452;2023-06-22T06:12:19;25.33;;;16.87;;
20870;SDS011;10595;51.218;3.452;2023-06-22T06:14:45;33.53;;;18.03;;
20870;SDS011;10595;51.218;3.452;2023-06-22T06:17:12;29.27;;;18.07;;
20870;SDS011;10595;51.218;3.452;2023-06-22T06:19:38;31.13;;;18.87;;
20870;SDS011;10595;51.218;3.452;2023-06-22T06:22:04;29.30;;;18.77;;
20870;SDS011;10595;51.218;3.452;2023-06-22T06:24:30;28.03;;;18.33;;
20870;SDS011;10595;51.218;3.452;2023-06-22T06:26:56;29.50;;;18.43;;
20870;SDS011;10595;51.218;3.452;2023-06-22T06:29:22;29.40;;;18.43;;
20870;SDS011;10595;51.218;3.452;2023-06-22T06:31:48;28.43;;;18.70;;
20870;SDS011;10595;51.218;3.452;2023-06-22T06:34:14;27.67;;;18.67;;
20870;SDS011;10595;51.218;3.452;2023-06-22T06:36:40;30.20;;;18.13;;
20870;SDS011;10595;51.218;3.452;2023-06-22T06:39:07;31.57;;;18.47;;
20870;SDS011;10595;51.218;3.452;2023-06-22T06:41:33;30.00;;;17.53;;
20870;SDS011;10595;51.218;3.452;2023-06-22T06:43:59;29.57;;;18.40;;
20870;SDS011;10595;51.218;3.452;2023-06-22T06:46:25;33.87;;;19.50;;
20870;SDS011;10595;51.218;3.452;2023-06-22T06:48:51;31.33;;;18.93;;
20870;SDS011;10595;51.218;3.452;2023-06-22T06:51:17;30.20;;;18.83;;
20870;SDS011;10595;51.218;3.452;2023-06-22T06:53:43;30.97;;;19.67;;
20870;SDS011;10595;51.218;3.452;2023-06-22T06:56:09;32.70;;;19.17;;
20870;SDS011;10595;51.218;3.452;2023-06-22T06:58:36;31.03;;;19.20;;
20870;SDS011;10595;51.218;3.452;2023-06-22T07:01:02;30.53;;;19.57;;
20870;SDS011;10595;51.218;3.452;2023-06-22T07:03:28;32.57;;;20.17;;
20870;SDS011;10595;51.218;3.452;2023-06-22T07:05:54;31.57;;;21.67;;
20870;SDS011;10595;51.218;3.452;2023-06-22T07:08:20;32.47;;;20.47;;
20870;SDS011;10595;51.218;3.452;2023-06-22T07:10:46;31.00;;;20.97;;
20870;SDS011;10595;51.218;3.452;2023-06-22T07:13:12;28.40;;;20.17;;
20870;SDS011;10595;51.218;3.452;2023-06-22T07:15:38;34.93;;;20.63;;
20870;SDS011;10595;51.218;3.452;2023-06-22T07:18:04;32.47;;;21.97;;
20870;SDS011;10595;51.218;3.452;2023-06-22T07:20:30;32.33;;;20.63;;
20870;SDS011;10595;51.218;3.452;2023-06-22T07:22:56;33.30;;;21.70;;
20870;SDS011;10595;51.218;3.452;2023-06-22T07:25:23;28.97;;;21.00;;
20870;SDS011;10595;51.218;3.452;2023-06-22T07:30:24;27.33;;;19.50;;
20870;SDS011;10595;51.218;3.452;2023-06-22T07:32:50;28.87;;;19.83;;
20870;SDS011;10595;51.218;3.452;2023-06-22T07:35:16;29.43;;;20.50;;
20870;SDS011;10595;51.218;3.452;2023-06-22T07:37:42;27.30;;;19.80;;
20870;SDS011;10595;51.218;3.452;2023-06-22T07:40:08;30.27;;;19.77;;
20870;SDS011;10595;51.218;3.452;2023-06-22T07:42:35;30.30;;;20.00;;
20870;SDS011;10595;51.218;3.452;2023-06-22T07:45:02;26.90;;;19.17;;
20870;SDS011;10595;51.218;3.452;2023-06-22T07:47:28;27.77;;;19.27;;
20870;SDS011;10595;51.218;3.452;2023-06-22T07:49:55;29.57;;;19.60;;
20870;SDS011;10595;51.218;3.452;2023-06-22T07:52:23;28.60;;;18.47;;
20870;SDS011;10595;51.218;3.452;2023-06-22T07:54:49;25.50;;;18.07;;
20870;SDS011;10595;51.218;3.452;2023-06-22T07:57:15;26.50;;;17.40;;
20870;SDS011;10595;51.218;3.452;2023-06-22T07:59:41;24.90;;;17.00;;
20870;SDS011;10595;51.218;3.452;2023-06-22T08:02:07;26.73;;;17.60;;
20870;SDS011;10595;51.218;3.452;2023-06-22T08:04:34;25.13;;;18.23;;
20870;SDS011;10595;51.218;3.452;2023-06-22T08:07:01;23.20;;;16.97;;
20870;SDS011;10595;51.218;3.452;2023-06-22T08:09:30;22.63;;;16.87;;
20870;SDS011;10595;51.218;3.452;2023-06-22T08:11:57;25.70;;;17.03;;
20870;SDS011;10595;51.218;3.452;2023-06-22T08:14:25;26.87;;;17.10;;
20870;SDS011;10595;51.218;3.452;2023-06-22T08:16:51;29.83;;;22.07;;
20870;SDS011;10595;51.218;3.452;2023-06-22T08:19:17;29.70;;;21.63;;
20870;SDS011;10595;51.218;3.452;2023-06-22T08:21:43;54.73;;;37.90;;
20870;SDS011;10595;51.218;3.452;2023-06-22T08:24:09;50.23;;;34.30;;
20870;SDS011;10595;51.218;3.452;2023-06-22T08:26:35;29.30;;;19.77;;
20870;SDS011;10595;51.218;3.452;2023-06-22T08:29:05;35.77;;;22.70;;
20870;SDS011;10595;51.218;3.452;2023-06-22T08:31:31;26.57;;;18.23;;
20870;SDS011;10595;51.218;3.452;2023-06-22T08:33:59;20.70;;;16.37;;
20870;SDS011;10595;51.218;3.452;2023-06-22T08:36:25;23.93;;;17.93;;
20870;SDS011;10595;51.218;3.452;2023-06-22T08:38:54;25.30;;;17.73;;
20870;SDS011;10595;51.218;3.452;2023-06-22T08:41:26;25.77;;;17.60;;
20870;SDS011;10595;51.218;3.452;2023-06-22T08:43:52;21.90;;;15.80;;
20870;SDS011;10595;51.218;3.452;2023-06-22T08:46:19;19.30;;;14.97;;
20870;SDS011;10595;51.218;3.452;2023-06-22T08:48:48;20.67;;;13.83;;
20870;SDS011;10595;51.218;3.452;2023-06-22T08:51:15;19.73;;;12.97;;
20870;SDS011;10595;51.218;3.452;2023-06-22T08:53:42;20.00;;;13.07;;
20870;SDS011;10595;51.218;3.452;2023-06-22T08:56:10;18.37;;;12.57;;
20870;SDS011;10595;51.218;3.452;2023-06-22T08:58:36;19.10;;;12.87;;
20870;SDS011;10595;51.218;3.452;2023-06-22T09:01:02;18.23;;;12.30;;
20870;SDS011;10595;51.218;3.452;2023-06-22T09:03:28;15.43;;;12.40;;
20870;SDS011;10595;51.218;3.452;2023-06-22T09:05:54;16.60;;;12.33;;
20870;SDS011;10595;51.218;3.452;2023-06-22T09:08:20;17.93;;;11.77;;
20870;SDS011;10595;51.218;3.452;2023-06-22T09:10:46;17.53;;;12.07;;
20870;SDS011;10595;51.218;3.452;2023-06-22T09:13:12;19.17;;;11.77;;
20870;SDS011;10595;51.218;3.452;2023-06-22T09:15:38;16.53;;;11.53;;
20870;SDS011;10595;51.218;3.452;2023-06-22T09:18:04;18.53;;;12.40;;
20870;SDS011;10595;51.218;3.452;2023-06-22T09:20:30;17.83;;;12.33;;
20870;SDS011;10595;51.218;3.452;2023-06-22T09:22:57;19.07;;;12.63;;
20870;SDS011;10595;51.218;3.452;2023-06-22T09:25:23;16.23;;;11.33;;
20870;SDS011;10595;51.218;3.452;2023-06-22T09:27:49;17.60;;;12.77;;
20870;SDS011;10595;51.218;3.452;2023-06-22T09:30:15;19.87;;;13.40;;
20870;SDS011;10595;51.218;3.452;2023-06-22T09:32:41;23.40;;;14.13;;
20870;SDS011;10595;51.218;3.452;2023-06-22T09:35:08;19.53;;;13.57;;
20870;SDS011;10595;51.218;3.452;2023-06-22T09:37:35;20.60;;;12.57;;
20870;SDS011;10595;51.218;3.452;2023-06-22T09:40:02;17.80;;;12.23;;
20870;SDS011;10595;51.218;3.452;2023-06-22T09:42:33;16.73;;;11.77;;
20870;SDS011;10595;51.218;3.452;2023-06-22T09:44:59;14.87;;;11.33;;
20870;SDS011;10595;51.218;3.452;2023-06-22T09:47:26;16.93;;;12.33;;
20870;SDS011;10595;51.218;3.452;2023-06-22T09:49:52;17.03;;;12.23;;
20870;SDS011;10595;51.218;3.452;2023-06-22T09:52:20;15.83;;;10.43;;
20870;SDS011;10595;51.218;3.452;2023-06-22T09:54:46;18.30;;;10.77;;
20870;SDS011;10595;51.218;3.452;2023-06-22T09:57:12;16.70;;;10.40;;
20870;SDS011;10595;51.218;3.452;2023-06-22T09:59:38;15.83;;;10.03;;
20870;SDS011;10595;51.218;3.452;2023-06-22T10:02:05;16.60;;;11.23;;
20870;SDS011;10595;51.218;3.452;2023-06-22T10:04:33;15.20;;;10.57;;
20870;SDS011;10595;51.218;3.452;2023-06-22T10:06:59;19.73;;;11.17;;
20870;SDS011;10595;51.218;3.452;2023-06-22T10:09:25;14.57;;;11.07;;
20870;SDS011;10595;51.218;3.452;2023-06-22T10:11:51;21.77;;;12.87;;
20870;SDS011;10595;51.218;3.452;2023-06-22T10:14:17;15.37;;;10.40;;
20870;SDS011;10595;51.218;3.452;2023-06-22T10:16:44;13.63;;;10.30;;
20870;SDS011;10595;51.218;3.452;2023-06-22T10:19:10;17.07;;;11.77;;
20870;SDS011;10595;51.218;3.452;2023-06-22T10:21:36;15.50;;;9.60;;
20870;SDS011;10595;51.218;3.452;2023-06-22T10:24:02;15.30;;;9.63;;
20870;SDS011;10595;51.218;3.452;2023-06-22T10:26:33;17.50;;;11.00;;
20870;SDS011;10595;51.218;3.452;2023-06-22T10:29:00;14.60;;;10.40;;
20870;SDS011;10595;51.218;3.452;2023-06-22T10:31:26;14.07;;;9.67;;
20870;SDS011;10595;51.218;3.452;2023-06-22T10:33:53;14.73;;;9.17;;
20870;SDS011;10595;51.218;3.452;2023-06-22T10:36:19;14.27;;;9.67;;
20870;SDS011;10595;51.218;3.452;2023-06-22T10:38:45;15.30;;;10.23;;
20870;SDS011;10595;51.218;3.452;2023-06-22T10:41:12;13.73;;;9.47;;
20870;SDS011;10595;51.218;3.452;2023-06-22T10:43:38;14.20;;;9.53;;
20870;SDS011;10595;51.218;3.452;2023-06-22T10:46:04;13.93;;;9.83;;
20870;SDS011;10595;51.218;3.452;2023-06-22T10:48:30;17.57;;;10.43;;
20870;SDS011;10595;51.218;3.452;2023-06-22T10:50:56;15.97;;;10.30;;
20870;SDS011;10595;51.218;3.452;2023-06-22T10:53:22;14.20;;;10.10;;
20870;SDS011;10595;51.218;3.452;2023-06-22T10:55:48;14.00;;;10.03;;
20870;SDS011;10595;51.218;3.452;2023-06-22T10:58:14;17.97;;;10.80;;
20870;SDS011;10595;51.218;3.452;2023-06-22T11:00:40;15.83;;;10.17;;
20870;SDS011;10595;51.218;3.452;2023-06-22T11:03:06;15.93;;;10.33;;
20870;SDS011;10595;51.218;3.452;2023-06-22T11:05:32;15.60;;;10.03;;
20870;SDS011;10595;51.218;3.452;2023-06-22T11:07:58;16.70;;;10.27;;
20870;SDS011;10595;51.218;3.452;2023-06-22T11:10:24;14.17;;;9.47;;
20870;SDS011;10595;51.218;3.452;2023-06-22T11:12:52;14.70;;;9.67;;
20870;SDS011;10595;51.218;3.452;2023-06-22T11:15:18;14.17;;;9.57;;
20870;SDS011;10595;51.218;3.452;2023-06-22T11:17:44;12.03;;;8.93;;
20870;SDS011;10595;51.218;3.452;2023-06-22T11:20:10;14.27;;;9.33;;
20870;SDS011;10595;51.218;3.452;2023-06-22T11:22:39;11.57;;;7.87;;
20870;SDS011;10595;51.218;3.452;2023-06-22T11:25:05;12.03;;;8.00;;
20870;SDS011;10595;51.218;3.452;2023-06-22T11:27:32;11.77;;;7.97;;
20870;SDS011;10595;51.218;3.452;2023-06-22T11:29:58;11.27;;;7.40;;
20870;SDS011;10595;51.218;3.452;2023-06-22T11:32:24;9.43;;;6.83;;
20870;SDS011;10595;51.218;3.452;2023-06-22T11:34:50;10.73;;;6.87;;
20870;SDS011;10595;51.218;3.452;2023-06-22T11:37:16;11.57;;;8.17;;
20870;SDS011;10595;51.218;3.452;2023-06-22T11:39:42;11.37;;;7.70;;
20870;SDS011;10595;51.218;3.452;2023-06-22T11:42:11;14.37;;;8.37;;
20870;SDS011;10595;51.218;3.452;2023-06-22T11:44:37;13.27;;;8.43;;
20870;SDS011;10595;51.218;3.452;2023-06-22T11:47:03;11.17;;;8.70;;
20870;SDS011;10595;51.218;3.452;2023-06-22T11:49:30;12.43;;;9.27;;
20870;SDS011;10595;51.218;3.452;2023-06-22T11:51:56;15.87;;;10.20;;
20870;SDS011;10595;51.218;3.452;2023-06-22T11:54:22;14.93;;;10.30;;
20870;SDS011;10595;51.218;3.452;2023-06-22T11:56:48;13.83;;;10.27;;
20870;SDS011;10595;51.218;3.452;2023-06-22T11:59:14;16.20;;;10.30;;
20870;SDS011;10595;51.218;3.452;2023-06-22T12:01:40;17.53;;;11.07;;
20870;SDS011;10595;51.218;3.452;2023-06-22T12:04:06;16.20;;;11.73;;
20870;SDS011;10595;51.218;3.452;2023-06-22T12:06:32;20.53;;;12.97;;
20870;SDS011;10595;51.218;3.452;2023-06-22T12:09:00;20.43;;;13.93;;
20870;SDS011;10595;51.218;3.452;2023-06-22T12:11:26;27.30;;;18.07;;
20870;SDS011;10595;51.218;3.452;2023-06-22T12:13:52;28.07;;;19.93;;
20870;SDS011;10595;51.218;3.452;2023-06-22T12:16:18;31.13;;;19.13;;
20870;SDS011;10595;51.218;3.452;2023-06-22T12:18:46;30.73;;;19.50;;
20870;SDS011;10595;51.218;3.452;2023-06-22T12:21:12;35.00;;;20.80;;
20870;SDS011;10595;51.218;3.452;2023-06-22T12:23:38;29.73;;;20.80;;
20870;SDS011;10595;51.218;3.452;2023-06-22T12:26:04;31.37;;;21.07;;
20870;SDS011;10595;51.218;3.452;2023-06-22T12:28:30;27.77;;;19.90;;
20870;SDS011;10595;51.218;3.452;2023-06-22T12:30:56;34.07;;;21.27;;
20870;SDS011;10595;51.218;3.452;2023-06-22T12:33:22;31.57;;;21.30;;
20870;SDS011;10595;51.218;3.452;2023-06-22T12:35:48;35.83;;;21.83;;
20870;SDS011;10595;51.218;3.452;2023-06-22T12:38:14;33.13;;;22.43;;
20870;SDS011;10595;51.218;3.452;2023-06-22T12:40:40;35.33;;;23.27;;
20870;SDS011;10595;51.218;3.452;2023-06-22T12:43:06;41.80;;;24.20;;
20870;SDS011;10595;51.218;3.452;2023-06-22T12:45:32;41.57;;;23.80;;
20870;SDS011;10595;51.218;3.452;2023-06-22T12:47:59;39.07;;;24.20;;
20870;SDS011;10595;51.218;3.452;2023-06-22T12:50:25;39.47;;;23.00;;
20870;SDS011;10595;51.218;3.452;2023-06-22T12:52:52;42.00;;;24.43;;
20870;SDS011;10595;51.218;3.452;2023-06-22T12:55:18;42.07;;;25.70;;
20870;SDS011;10595;51.218;3.452;2023-06-22T12:57:44;45.80;;;25.87;;
20870;SDS011;10595;51.218;3.452;2023-06-22T13:00:10;39.40;;;24.90;;
20870;SDS011;10595;51.218;3.452;2023-06-22T13:02:36;42.57;;;25.07;;
20870;SDS011;10595;51.218;3.452;2023-06-22T13:05:02;40.77;;;25.30;;
20870;SDS011;10595;51.218;3.452;2023-06-22T13:07:30;40.97;;;25.33;;
20870;SDS011;10595;51.218;3.452;2023-06-22T13:09:56;40.13;;;24.97;;
20870;SDS011;10595;51.218;3.452;2023-06-22T13:12:22;37.40;;;24.60;;
20870;SDS011;10595;51.218;3.452;2023-06-22T13:14:48;36.20;;;23.57;;
20870;SDS011;10595;51.218;3.452;2023-06-22T13:17:14;39.33;;;24.67;;
20870;SDS011;10595;51.218;3.452;2023-06-22T13:19:40;39.67;;;23.37;;
20870;SDS011;10595;51.218;3.452;2023-06-22T13:24:51;37.13;;;22.80;;
20870;SDS011;10595;51.218;3.452;2023-06-22T13:27:17;36.10;;;23.90;;
20870;SDS011;10595;51.218;3.452;2023-06-22T13:29:43;38.77;;;24.37;;
20870;SDS011;10595;51.218;3.452;2023-06-22T13:32:09;37.70;;;23.90;;
20870;SDS011;10595;51.218;3.452;2023-06-22T13:34:35;38.57;;;25.67;;
20870;SDS011;10595;51.218;3.452;2023-06-22T13:37:01;38.97;;;25.30;;
20870;SDS011;10595;51.218;3.452;2023-06-22T13:39:27;37.47;;;25.30;;
20870;SDS011;10595;51.218;3.452;2023-06-22T13:41:53;36.80;;;25.97;;
20870;SDS011;10595;51.218;3.452;2023-06-22T13:44:19;44.30;;;28.67;;
20870;SDS011;10595;51.218;3.452;2023-06-22T13:46:47;42.50;;;28.63;;
20870;SDS011;10595;51.218;3.452;2023-06-22T13:49:13;44.63;;;29.10;;
20870;SDS011;10595;51.218;3.452;2023-06-22T13:51:39;48.63;;;30.33;;
20870;SDS011;10595;51.218;3.452;2023-06-22T13:54:05;51.63;;;31.97;;
20870;SDS011;10595;51.218;3.452;2023-06-22T13:56:31;51.37;;;32.77;;
20870;SDS011;10595;51.218;3.452;2023-06-22T13:58:58;53.50;;;33.97;;
20870;SDS011;10595;51.218;3.452;2023-06-22T14:01:24;52.00;;;34.40;;
20870;SDS011;10595;51.218;3.452;2023-06-22T14:03:50;61.00;;;37.80;;
20870;SDS011;10595;51.218;3.452;2023-06-22T14:06:16;62.20;;;40.13;;
20870;SDS011;10595;51.218;3.452;2023-06-22T14:08:42;68.50;;;41.70;;
20870;SDS011;10595;51.218;3.452;2023-06-22T14:11:08;76.23;;;45.70;;
20870;SDS011;10595;51.218;3.452;2023-06-22T14:13:34;70.10;;;44.47;;
20870;SDS011;10595;51.218;3.452;2023-06-22T14:16:00;73.90;;;45.40;;
20870;SDS011;10595;51.218;3.452;2023-06-22T14:18:26;70.77;;;43.80;;
20870;SDS011;10595;51.218;3.452;2023-06-22T14:20:52;67.90;;;43.27;;
20870;SDS011;10595;51.218;3.452;2023-06-22T14:23:18;69.63;;;41.97;;
20870;SDS011;10595;51.218;3.452;2023-06-22T14:25:44;72.47;;;42.40;;
20870;SDS011;10595;51.218;3.452;2023-06-22T14:28:10;70.03;;;43.80;;
20870;SDS011;10595;51.218;3.452;2023-06-22T14:30:36;70.00;;;45.37;;
20870;SDS011;10595;51.218;3.452;2023-06-22T14:33:02;68.77;;;44.47;;
20870;SDS011;10595;51.218;3.452;2023-06-22T14:35:28;66.27;;;42.80;;